tititudorancea.com
Station Historical Data
Daily Summary for June 10, 2018 Units:  Metric    English   Both
« Previous Day
Next Day »
Daily Weekly Monthly Yearly Custom
  High: Low: Average:
Temperature: -17.8 °C -0.2 °C 6.2 °C
Dew Point: -17.8 °C -0.9 °C 4.2 °C
Humidity: Humidity % 71 % 88 %
Wind Speed: 0 km/h 0 km/h 2.7 km/h
Wind Gust: 0 km/h - -
Wind:- - NNW
Pressure: 0 hPa 1023.6 hPa -
Precipitation: 0.25 mm    
Historical Graphs
 
 
Ararat weather Find more about Weather in Ararat, AU


 



 


Tabular Data for June 10, 2018
Time Temperature Dew Point Pressure Wind Wind Speed Wind Gust Humidity Rainfall Rate (Hourly)
-17.8 °C -17.8 °C 0 hPa Calm     Humidity % 0 mm
00:04 2.3 °C 1.4 °C 1024.9 hPa Calm     94 % 0 mm
00:09 2.4 °C 1.5 °C 1025.3 hPa North 3.7 km/h 3.5 km/h 94 % 0 mm
00:14 2.4 °C 1.6 °C 1025.3 hPa North 3.7 km/h 2.3 km/h 94 % 0 mm
00:19 2.5 °C 1.6 °C 1024.9 hPa Calm     94 % 0 mm
00:24 2.5 °C 1.6 °C 1024.9 hPa North 3.7 km/h 0.8 km/h 94 % 0 mm
00:29 2.4 °C 1.5 °C 1024.9 hPa Calm     94 % 0 mm
00:34 2.3 °C 1.4 °C 1024.9 hPa Calm     94 % 0 mm
00:39 2.4 °C 1.7 °C 1024.9 hPa NW 3.7 km/h 2.6 km/h 95 % 0 mm
00:44 2.8 °C 2.1 °C 1024.9 hPa North 3.7 km/h 1.3 km/h 95 % 0 mm
00:49 2.9 °C 2.2 °C 1024.9 hPa North 5.6 km/h 3.1 km/h 95 % 0 mm
00:54 2.9 °C 2.1 °C 1024.9 hPa NW 3.7 km/h 2.3 km/h 94 % 0 mm
00:59 2.7 °C 1.8 °C 1024.9 hPa NW 5.6 km/h 3.9 km/h 94 % 0.25 mm
01:04 2.6 °C 1.7 °C 1024.9 hPa Calm     94 % 0 mm
01:09 2.6 °C 1.9 °C 1024.9 hPa Calm     95 % 0 mm
01:14 2.7 °C 1.9 °C 1024.9 hPa NW 1.9 km/h 1 km/h 95 % 0 mm
01:19 2.6 °C 1.7 °C 1024.9 hPa North 1.9 km/h   94 % 0 mm
01:24 2.7 °C 2 °C 1024.9 hPa NW 1.9 km/h   95 % 0 mm
01:29 2.8 °C 2.1 °C 1024.6 hPa Calm     95 % 0 mm
01:34 2.7 °C 1.8 °C 1024.6 hPa Calm     94 % 0 mm
01:39 2.6 °C 1.7 °C 1024.9 hPa Calm     94 % 0 mm
01:44 2.4 °C 1.6 °C 1024.9 hPa Calm     94 % 0 mm
01:49 2.3 °C 1.4 °C 1024.9 hPa Calm     94 % 0 mm
01:54 2.3 °C 1.4 °C 1024.9 hPa Calm     94 % 0 mm
01:59 2.2 °C 1.5 °C 1024.9 hPa Calm     95 % 0 mm
02:04 2.3 °C 1.6 °C 1024.9 hPa Calm     95 % 0 mm
02:09 2.3 °C 1.6 °C 1024.9 hPa Calm     95 % 0 mm
02:14 2.3 °C 1.6 °C 1024.9 hPa Calm     95 % 0 mm
02:19 2.2 °C 1.3 °C 1024.9 hPa Calm     94 % 0 mm
02:24 1.9 °C 1.1 °C 1024.9 hPa Calm     94 % 0 mm
02:29 1.8 °C 0.9 °C 1024.9 hPa Calm     94 % 0 mm
02:34 1.6 °C 0.7 °C 1024.9 hPa Calm     94 % 0 mm
02:39 1.4 °C 0.6 °C 1025.3 hPa Calm     94 % 0 mm
02:44 1.2 °C 0.4 °C 1025.3 hPa Calm     94 % 0 mm
02:49 1.2 °C 0.3 °C 1025.3 hPa Calm     94 % 0 mm
02:54 1.1 °C 0.2 °C 1025.3 hPa Calm     94 % 0 mm
02:59 0.9 °C 0.1 °C 1025.3 hPa Calm     94 % 0 mm
03:04 0.9 °C 0.2 °C 1025.3 hPa Calm     95 % 0 mm
03:09 0.8 °C 0 °C 1025.3 hPa Calm     94 % 0 mm
03:14 0.8 °C 0.1 °C 1025.3 hPa Calm     95 % 0 mm
03:19 0.8 °C 0.1 °C 1025.3 hPa Calm     95 % 0 mm
03:24 0.9 °C 0.2 °C 1025.3 hPa Calm     95 % 0 mm
03:29 0.9 °C 0.2 °C 1025.3 hPa Calm     95 % 0 mm
03:34 0.9 °C 0.2 °C 1025.3 hPa Calm     95 % 0 mm
03:39 1 °C 0.3 °C 1025.3 hPa Calm     95 % 0 mm
03:44 1.1 °C 0.4 °C 1025.3 hPa Calm     95 % 0 mm
03:49 1.1 °C 0.4 °C 1025.3 hPa Calm     95 % 0 mm
03:54 1.1 °C 0.4 °C 1025.3 hPa Calm     95 % 0 mm
03:59 1.2 °C 0.4 °C 1025.3 hPa Calm     95 % 0 mm
04:04 1.2 °C 0.4 °C 1025.3 hPa Calm     95 % 0 mm
04:09 1.2 °C 0.4 °C 1025.3 hPa Calm     95 % 0 mm
04:14 1.1 °C 0.4 °C 1025.3 hPa Calm     95 % 0 mm
04:19 1 °C 0.3 °C 1025.3 hPa Calm     95 % 0 mm
04:24 0.9 °C 0.2 °C 1025.3 hPa Calm     95 % 0 mm
04:29 0.9 °C 0.2 °C 1025.3 hPa Calm     95 % 0 mm
04:34 0.8 °C 0.1 °C 1025.3 hPa Calm     95 % 0 mm
04:39 0.8 °C 0.1 °C 1025.3 hPa Calm     95 % 0 mm
04:44 0.7 °C 0 °C 1025.3 hPa Calm     95 % 0 mm
04:49 0.6 °C -0.1 °C 1025.3 hPa Calm     95 % 0 mm
04:54 0.7 °C 0 °C 1025.3 hPa Calm     95 % 0 mm
04:59 0.7 °C 0 °C 1025.3 hPa Calm     95 % 0 mm
05:04 0.8 °C 0.1 °C 1025.3 hPa Calm     95 % 0 mm
05:09 0.8 °C 0.1 °C 1025.3 hPa Calm     95 % 0 mm
05:14 0.7 °C 0 °C 1025.6 hPa Calm     95 % 0 mm
05:19 0.7 °C -0.1 °C 1025.6 hPa Calm     95 % 0 mm
05:24 0.6 °C -0.1 °C 1025.6 hPa Calm     95 % 0 mm
05:29 0.6 °C -0.2 °C 1025.6 hPa Calm     95 % 0 mm
05:34 0.6 °C -0.2 °C 1025.6 hPa Calm     95 % 0 mm
05:39 0.6 °C -0.1 °C 1025.6 hPa Calm     95 % 0 mm
05:44 0.6 °C -0.1 °C 1025.6 hPa Calm     95 % 0 mm
05:49 0.6 °C -0.1 °C 1025.6 hPa Calm     95 % 0 mm
05:54 0.7 °C -0.1 °C 1025.6 hPa Calm     95 % 0 mm
05:59 0.7 °C -0.1 °C 1025.6 hPa Calm     95 % 0 mm
06:04 0.7 °C -0.1 °C 1026 hPa Calm     95 % 0 mm
06:09 0.7 °C -0.1 °C 1026 hPa Calm     95 % 0 mm
06:14 0.7 °C 0 °C 1026 hPa Calm     95 % 0 mm
06:19 0.6 °C -0.1 °C 1026 hPa Calm     95 % 0 mm
06:24 0.6 °C -0.2 °C 1026 hPa Calm     95 % 0 mm
06:29 0.5 °C -0.2 °C 1026.3 hPa Calm     95 % 0 mm
06:34 0.5 °C -0.2 °C 1026.3 hPa Calm     95 % 0 mm
06:39 0.4 °C -0.3 °C 1026.3 hPa Calm     95 % 0 mm
06:44 0.4 °C -0.3 °C 1026.3 hPa Calm     95 % 0 mm
06:49 0.4 °C -0.3 °C 1026.6 hPa Calm     95 % 0 mm
06:54 0.5 °C -0.1 °C 1026.6 hPa Calm     96 % 0 mm
06:59 0.5 °C -0.2 °C 1026.6 hPa Calm     95 % 0 mm
07:04 0.4 °C -0.3 °C 1026.6 hPa Calm     95 % 0 mm
07:09 0.4 °C -0.3 °C 1026.6 hPa Calm     95 % 0 mm
07:14 0.4 °C -0.3 °C 1026.6 hPa Calm     95 % 0 mm
07:19 0.3 °C -0.4 °C 1026.6 hPa Calm     95 % 0 mm
07:24 0.2 °C -0.5 °C 1026.6 hPa Calm     95 % 0 mm
07:29 0.1 °C -0.6 °C 1026.6 hPa Calm     95 % 0 mm
07:34 0 °C -0.7 °C 1026.6 hPa Calm     95 % 0 mm
07:39 -0.1 °C -0.8 °C 1026.6 hPa Calm     95 % 0 mm
07:44 -0.1 °C -0.8 °C 1026.6 hPa Calm     95 % 0 mm
07:49 -0.1 °C -0.8 °C 1026.6 hPa Calm     95 % 0 mm
07:54 -0.1 °C -0.8 °C 1026.6 hPa Calm     95 % 0 mm
07:59 -0.1 °C -0.8 °C 1026.6 hPa Calm     95 % 0 mm
08:04 -0.2 °C -0.9 °C 1027 hPa Calm     95 % 0 mm
08:09 -0.1 °C -0.7 °C 1027 hPa Calm     96 % 0 mm
08:14 -0.1 °C -0.6 °C 1027 hPa Calm     96 % 0 mm
08:19 0 °C -0.6 °C 1027 hPa Calm     96 % 0 mm
08:24 0.1 °C -0.4 °C 1026.6 hPa Calm     96 % 0 mm
08:29 0.3 °C -0.2 °C 1026.6 hPa Calm     96 % 0 mm
08:34 0.7 °C 0.2 °C 1026.6 hPa Calm     96 % 0 mm
08:39 1.1 °C 0.6 °C 1026.6 hPa Calm     96 % 0 mm
08:44 1.6 °C 1.2 °C 1027 hPa Calm     97 % 0 mm
08:49 2.4 °C 2 °C 1027 hPa Calm     97 % 0 mm
08:54 3.4 °C 2.9 °C 1027 hPa Calm     97 % 0 mm
08:59 4.2 °C 3.8 °C 1027 hPa Calm     97 % 0 mm
09:04 4.9 °C 4.5 °C 1026.6 hPa Calm     97 % 0 mm
09:09 5.6 °C 5.2 °C 1026.6 hPa Calm     97 % 0 mm
09:14 6.2 °C 5.7 °C 1026.6 hPa Calm     97 % 0 mm
09:19 6.5 °C 6.1 °C 1026.6 hPa Calm     97 % 0 mm
09:24 6.7 °C 6.3 °C 1026.6 hPa Calm     97 % 0 mm
09:29 6.9 °C 6.5 °C 1026.6 hPa Calm     97 % 0 mm
09:34 7.1 °C 6.7 °C 1026.6 hPa NW 3.7 km/h 0.8 km/h 97 % 0 mm
09:39 7.6 °C 7.1 °C 1027 hPa NW 5.6 km/h 4.7 km/h 97 % 0 mm
09:44 7.8 °C 7.3 °C 1027 hPa NW 5.6 km/h 2.9 km/h 97 % 0 mm
09:49 8.1 °C 7.7 °C 1027 hPa NW 7.4 km/h 4.8 km/h 97 % 0 mm
09:54 8.4 °C 7.9 °C 1027 hPa NW 5.6 km/h 0.6 km/h 97 % 0 mm
09:59 8.7 °C 8.3 °C 1027 hPa NW 9.3 km/h 4.5 km/h 97 % 0 mm
10:04 9 °C 8.6 °C 1027 hPa NW 9.3 km/h 6.9 km/h 97 % 0 mm
10:09 9.3 °C 8.5 °C 1027 hPa NW 5.6 km/h 0.5 km/h 95 % 0 mm
10:14 9.6 °C 8.8 °C 1027 hPa NW 5.6 km/h 3.7 km/h 95 % 0 mm
10:19 9.9 °C 9 °C 1027 hPa NW 5.6 km/h 3.5 km/h 94 % 0 mm
10:24 10.2 °C 9.2 °C 1027 hPa NW 9.3 km/h 5.5 km/h 93 % 0 mm
10:29 10.4 °C 9.2 °C 1027 hPa NW 5.6 km/h 4 km/h 92 % 0 mm
10:34 10.7 °C 9.3 °C 1027 hPa NW 5.6 km/h 3.5 km/h 91 % 0 mm
10:39 10.9 °C 9.4 °C 1027 hPa NW 5.6 km/h 3.9 km/h 90 % 0 mm
10:44 11.3 °C 9.4 °C 1027 hPa NW 11.1 km/h 6.9 km/h 88 % 0 mm
10:49 11.6 °C 9.3 °C 1027 hPa NW 9.3 km/h 4 km/h 86 % 0 mm
10:54 11.8 °C 9.2 °C 1027 hPa NW 11.1 km/h 6.6 km/h 84 % 0 mm
10:59 12 °C 9.4 °C 1026.6 hPa NW 5.6 km/h 2.9 km/h 84 % 0 mm
11:04 12.3 °C 9.1 °C 1027 hPa NW 9.3 km/h 5.8 km/h 81 % 0 mm
11:09 12.3 °C 9.2 °C 1027 hPa NW 8 km/h 5.1 km/h 81 % 0 mm
11:14 12.2 °C 8.9 °C 1026.6 hPa NW 5.6 km/h 2.9 km/h 80 % 0 mm
11:19 12.2 °C 8.7 °C 1026.6 hPa NW 5.6 km/h 4.2 km/h 79 % 0 mm
11:24 12.1 °C 8.8 °C 1026.6 hPa NW 9.7 km/h 4 km/h 80 % 0 mm
11:29 12.1 °C 8.3 °C 1026.6 hPa NW 13 km/h 6.9 km/h 78 % 0 mm
11:34 12.2 °C 8.4 °C 1026.6 hPa NW 11.1 km/h 7.2 km/h 78 % 0 mm
11:39 12.3 °C 8.4 °C 1026.6 hPa NW 13 km/h 10.9 km/h 77 % 0 mm
11:44 12.3 °C 8.3 °C 1026.6 hPa NW 9.3 km/h 8 km/h 77 % 0 mm
11:49 12.4 °C 8.7 °C 1026.3 hPa NW 5.6 km/h 6.1 km/h 78 % 0 mm
11:54 12.2 °C 8.5 °C 1026.3 hPa North 7.4 km/h 4 km/h 78 % 0 mm
11:59 12.3 °C 8.7 °C 1026.3 hPa NW 11.1 km/h 6.3 km/h 79 % 0 mm
12:04 12.6 °C 8.9 °C 1026.3 hPa NW 9.3 km/h 8.4 km/h 78 % 0 mm
12:09 12.8 °C 9.1 °C 1026.3 hPa North 11.1 km/h 7.6 km/h 78 % 0 mm
12:14 13.1 °C 9.1 °C 1026 hPa NNW 14.8 km/h 8.2 km/h 77 % 0 mm
12:19 13.1 °C 8.5 °C 1026 hPa NNW 13 km/h 4.8 km/h 74 % 0 mm
12:24 12.8 °C 8.3 °C 1026 hPa NNW 9.7 km/h 8.2 km/h 74 % 0 mm
12:29 12.6 °C 8.7 °C 1026 hPa NNW 7.4 km/h 2.7 km/h 77 % 0 mm
12:34 12.9 °C 8.9 °C 1026 hPa North 9.7 km/h 7.6 km/h 77 % 0 mm
12:39 12.9 °C 8.8 °C 1026 hPa NNW 7.4 km/h 3.5 km/h 76 % 0 mm
12:44 12.8 °C 8.9 °C 1026 hPa NNW 9.7 km/h 4 km/h 77 % 0 mm
12:49 13.2 °C 9.2 °C 1026 hPa NNW 8 km/h 8.9 km/h 77 % 0 mm
12:54 13.2 °C 8.8 °C 1025.6 hPa North 7.4 km/h 5.1 km/h 75 % 0 mm
12:59 13.4 °C 9.1 °C 1025.6 hPa NNW 5.6 km/h 5.8 km/h 75 % 0 mm
13:04 13.1 °C 8.4 °C 1025.6 hPa NNW 9.3 km/h 3.7 km/h 73 % 0 mm
13:09 12.9 °C 8.6 °C 1025.6 hPa NNW 7.4 km/h 7.2 km/h 75 % 0 mm
13:14 12.8 °C 8.3 °C 1025.3 hPa NNW 5.6 km/h 3.5 km/h 74 % 0 mm
13:19 12.7 °C 8.6 °C 1025.3 hPa NNW 5.6 km/h 1.9 km/h 76 % 0 mm
13:24 12.8 °C 8.9 °C 1025.3 hPa NNW 1.9 km/h 0.5 km/h 77 % 0 mm
13:29 13.3 °C 8.9 °C 1024.9 hPa North 9.3 km/h 5.5 km/h 75 % 0 mm
13:34 13.7 °C 8.8 °C 1024.9 hPa North 14.8 km/h 9.7 km/h 72 % 0 mm
13:39 13.9 °C 8.7 °C 1024.9 hPa North 13 km/h 7.4 km/h 71 % 0 mm
13:44 14 °C 8.8 °C 1024.9 hPa NNW 9.3 km/h 5.8 km/h 71 % 0 mm
13:49 13.9 °C 8.7 °C 1024.9 hPa NNW 7.4 km/h 6 km/h 71 % 0 mm
13:54 13.3 °C 8.2 °C 1024.6 hPa NNW 13 km/h 7.1 km/h 71 % 0 mm
13:59 12.9 °C 8.4 °C 1024.6 hPa NNW 9.3 km/h 6.6 km/h 74 % 0 mm
14:04 12.9 °C 8.8 °C 1024.6 hPa North 7.4 km/h 3.9 km/h 76 % 0 mm
14:09 13.3 °C 9 °C 1024.6 hPa NNW 9.7 km/h 4.3 km/h 75 % 0 mm
14:14 13.4 °C 8.7 °C 1024.6 hPa North 9.7 km/h 6.4 km/h 73 % 0 mm
14:19 13.2 °C 8.7 °C 1024.6 hPa North 7.4 km/h 6.8 km/h 74 % 0 mm
14:24 13 °C 8.4 °C 1024.6 hPa North 5.6 km/h 4.2 km/h 74 % 0 mm
14:29 12.9 °C 8.6 °C 1024.6 hPa North 5.6 km/h 5.3 km/h 75 % 0 mm
14:34 13.1 °C 8.7 °C 1024.6 hPa NNW 5.6 km/h 5.5 km/h 75 % 0 mm
14:39 13.1 °C 8.6 °C 1024.3 hPa NNW 8 km/h 3.4 km/h 74 % 0 mm
14:44 13.2 °C 8.3 °C 1024.6 hPa NNW 8 km/h 6.4 km/h 72 % 0 mm
14:49 13.2 °C 8 °C 1024.3 hPa NNW 7.4 km/h 5.1 km/h 71 % 0 mm
14:54 13.1 °C 7.9 °C 1024.3 hPa North 7.4 km/h 5.3 km/h 71 % 0 mm
14:59 13.1 °C 8.2 °C 1024.3 hPa NNW 9.7 km/h 5 km/h 72 % 0 mm
15:04 13.2 °C 8.2 °C 1024.6 hPa North 7.4 km/h 5.1 km/h 72 % 0 mm
15:09 13.2 °C 8.2 °C 1024.3 hPa NNW 7.4 km/h 5.3 km/h 72 % 0 mm
15:14 13.1 °C 8.2 °C 1024.3 hPa NNW 7.4 km/h 2.9 km/h 72 % 0 mm
15:19 13.1 °C 8.4 °C 1024.3 hPa NNW 5.6 km/h 1.4 km/h 73 % 0 mm
15:24 13.1 °C 8.4 °C 1024.3 hPa NNW 5.6 km/h 2.7 km/h 73 % 0 mm
15:29 13.1 °C 8.3 °C 1024.3 hPa NNW 5.6 km/h 4 km/h 73 % 0 mm
15:34 13 °C 8.3 °C 1024.3 hPa NNW 3.7 km/h 1.4 km/h 73 % 0 mm
15:39 12.9 °C 8.4 °C 1024.3 hPa NNW 5.6 km/h 1.4 km/h 74 % 0 mm
15:44 12.9 °C 8.4 °C 1024.3 hPa Calm     74 % 0 mm
15:49 12.8 °C 8.3 °C 1024.3 hPa NNW 3.2 km/h 0.8 km/h 74 % 0 mm
15:54 12.8 °C 8.4 °C 1024.3 hPa NNW 3.7 km/h   75 % 0 mm
15:59 12.8 °C 8.5 °C 1024.3 hPa Calm     75 % 0 mm
16:04 12.9 °C 8.4 °C 1024.3 hPa NNW 5.6 km/h 2.3 km/h 74 % 0 mm
16:09 12.9 °C 8.4 °C 1024.3 hPa North 5.6 km/h 2.3 km/h 74 % 0 mm
16:14 12.8 °C 8.1 °C 1024.3 hPa NNW 3.7 km/h 2.9 km/h 73 % 0 mm
16:19 12.8 °C 8.3 °C 1024.3 hPa NNW 3.7 km/h 2.1 km/h 74 % 0 mm
16:24 12.8 °C 8.3 °C 1023.9 hPa NNW 1.9 km/h 0.2 km/h 74 % 0 mm
16:29 12.7 °C 8.2 °C 1023.9 hPa Calm     74 % 0 mm
16:34 12.7 °C 8.2 °C 1023.9 hPa Calm     74 % 0 mm
16:39 12.6 °C 8.2 °C 1023.9 hPa Calm     75 % 0 mm
16:44 12.4 °C 8.1 °C 1023.9 hPa Calm     75 % 0 mm
16:49 12.2 °C 8.1 °C 1023.9 hPa Calm     76 % 0 mm
16:54 12.1 °C 8 °C 1023.9 hPa Calm     76 % 0 mm
16:59 11.9 °C 8.1 °C 1023.9 hPa Calm     77 % 0 mm
17:04 11.8 °C 7.9 °C 1023.9 hPa Calm     77 % 0 mm
17:09 11.6 °C 7.9 °C 1023.9 hPa Calm     78 % 0 mm
17:14 11.4 °C 7.9 °C 1023.9 hPa Calm     79 % 0 mm
17:19 11.1 °C 7.6 °C 1023.9 hPa Calm     79 % 0 mm
17:24 10.9 °C 7.6 °C 1023.9 hPa Calm     80 % 0 mm
17:29 10.8 °C 7.7 °C 1023.9 hPa Calm     81 % 0.25 mm
17:34 10.6 °C 7.6 °C 1024.3 hPa Calm     82 % 0.25 mm
17:39 10.3 °C 7.5 °C 1024.3 hPa Calm     83 % 0.25 mm
17:44 10.1 °C 7.6 °C 1024.3 hPa Calm     84 % 0.25 mm
17:49 10 °C 7.6 °C 1024.3 hPa Calm     85 % 0.25 mm
17:54 9.9 °C 7.5 °C 1024.3 hPa Calm     85 % 0.25 mm
17:59 9.7 °C 7.3 °C 1024.3 hPa Calm     85 % 0.25 mm
18:04 9.6 °C 7.2 °C 1024.3 hPa Calm     85 % 0.25 mm
18:09 9.3 °C 7.1 °C 1024.3 hPa Calm     86 % 0.25 mm
18:14 8.9 °C 6.7 °C 1024.3 hPa Calm     86 % 0.25 mm
21:24 5.2 °C 4.1 °C 1024.9 hPa Calm     93 % 0.25 mm
21:29 5.1 °C 4.1 °C 1024.9 hPa Calm     93 % 0.25 mm
21:34 5 °C 3.9 °C 1024.9 hPa Calm     93 % 0 mm
21:39 4.8 °C 3.7 °C 1024.9 hPa Calm     93 % 0 mm
21:44 4.8 °C 3.7 °C 1024.9 hPa NNW 3.7 km/h 1.9 km/h 93 % 0 mm
21:49 4.9 °C 4 °C 1024.9 hPa Calm     94 % 0 mm
21:54 4.9 °C 3.9 °C 1024.9 hPa NNW 3.7 km/h 1.8 km/h 93 % 0 mm
21:59 5.1 °C 4.2 °C 1024.9 hPa Calm   0.2 km/h 94 % 0 mm
22:04 5 °C 3.9 °C 1024.9 hPa North 5.6 km/h   93 % 0 mm
22:09 4.9 °C 3.8 °C 1024.6 hPa Calm     93 % 0 mm
22:14 4.9 °C 4 °C 1024.6 hPa North 1.9 km/h   94 % 0 mm
22:19 4.8 °C 3.9 °C 1024.6 hPa Calm     94 % 0 mm
22:24 4.7 °C 3.7 °C 1024.6 hPa Calm     93 % 0 mm
22:29 4.5 °C 3.4 °C 1024.6 hPa Calm     93 % 0 mm
22:34 4.3 °C 3.3 °C 1024.3 hPa Calm     93 % 0 mm
22:39 4.2 °C 3.2 °C 1024.3 hPa Calm     93 % 0 mm
22:44 4.2 °C 3.3 °C 1024.3 hPa Calm     94 % 0 mm
22:49 4.1 °C 3.1 °C 1024.3 hPa Calm     93 % 0 mm
22:54 4 °C 2.9 °C 1024.3 hPa Calm     93 % 0 mm
22:59 3.9 °C 3.1 °C 1024.3 hPa Calm     94 % 0 mm
23:04 4.1 °C 3.2 °C 1024.3 hPa North 1.9 km/h   94 % 0 mm
23:09 4.2 °C 3.5 °C 1023.9 hPa Calm     95 % 0 mm
23:14 4.3 °C 3.4 °C 1023.9 hPa Calm     94 % 0 mm
23:19 4.5 °C 3.8 °C 1023.9 hPa North 1.6 km/h 0.5 km/h 95 % 0 mm
23:24 4.8 °C 4.1 °C 1023.6 hPa North 1.6 km/h   95 % 0 mm
23:29 4.8 °C 4.1 °C 1023.6 hPa Calm     95 % 0 mm
23:34 4.7 °C 3.8 °C 1023.6 hPa Calm     94 % 0 mm
23:39 4.7 °C 3.8 °C 1023.6 hPa Calm     94 % 0 mm
23:44 4.6 °C 3.7 °C 1023.6 hPa Calm     94 % 0 mm
23:49 4.6 °C 3.7 °C 1023.6 hPa Calm     94 % 0 mm
23:54 4.7 °C 4 °C 1023.6 hPa Calm     95 % 0 mm
23:59 4.7 °C 3.8 °C 1023.6 hPa North 3.7 km/h 2.6 km/h 94 % 0 mm
Ararat Weather
Compliments of Weather Underground - 2 mb
Click here to send mail.


ABOUT

Live weather data from Ararat, Victoria, Australia, 3377
Data uploaded from Cumulus every 5 minutes to Weather Underground.
This site then downloads the raw data for formatting and display.
Metric and imperial data can be displayed. Graphs and historical data available.
Includes Sun and Moon times and rain image live from BOM.

Check out Ararat Weather on Facebook, Twitter and Google +

Help support ongoing costs by checking out the ads





Follow @AraratWeather